createdAt,value
2023-05-18T00:00:36.600Z,6.30
2023-05-18T00:05:58.217Z,6.70
2023-05-18T00:11:06.930Z,5.40
2023-05-18T00:16:12.679Z,7.30
2023-05-18T00:21:16.706Z,6.50
2023-05-18T00:26:21.298Z,7.20
2023-05-18T00:31:27.139Z,7.00
2023-05-18T00:36:32.124Z,6.10
2023-05-18T00:41:36.880Z,6.30
2023-05-18T00:46:41.949Z,5.60
2023-05-18T00:51:46.410Z,6.20
2023-05-18T00:56:54.340Z,5.70
2023-05-18T01:02:05.242Z,5.00
2023-05-18T01:07:12.017Z,5.90
2023-05-18T01:12:24.697Z,5.70
2023-05-18T01:17:47.961Z,5.10
2023-05-18T01:23:24.108Z,4.50
2023-05-18T01:28:32.720Z,5.00
2023-05-18T01:33:36.847Z,5.30
2023-05-18T01:38:43.948Z,4.90
2023-05-18T01:44:34.216Z,4.70
2023-05-18T01:50:02.668Z,3.90
2023-05-18T01:55:07.801Z,4.40
2023-05-18T02:00:13.025Z,3.20
2023-05-18T02:05:23.827Z,4.30
2023-05-18T02:10:27.529Z,4.60
2023-05-18T02:15:31.722Z,3.50
2023-05-18T02:20:38.936Z,4.00
2023-05-18T02:25:44.856Z,4.50
2023-05-18T02:30:51.040Z,4.10
2023-05-18T02:35:54.863Z,4.50
2023-05-18T02:40:59.246Z,3.70
2023-05-18T02:46:06.205Z,3.60
2023-05-18T02:51:11.026Z,4.10
2023-05-18T02:56:15.233Z,3.90
2023-05-18T03:01:45.285Z,5.10
2023-05-18T03:06:53.437Z,3.70
2023-05-18T03:11:58.278Z,4.10
2023-05-18T03:17:06.284Z,3.30
2023-05-18T03:22:11.556Z,3.50
2023-05-18T03:27:16.921Z,3.20
2023-05-18T03:32:23.451Z,3.20
2023-05-18T03:37:27.732Z,3.00
2023-05-18T03:42:32.198Z,3.10
2023-05-18T03:47:40.222Z,3.00
2023-05-18T03:52:45.003Z,3.40
2023-05-18T03:57:49.846Z,4.20
2023-05-18T04:02:54.624Z,3.70
2023-05-18T04:08:01.311Z,3.50
2023-05-18T04:13:05.113Z,3.10
2023-05-18T04:18:10.897Z,4.20
2023-05-18T04:23:14.632Z,2.70
2023-05-18T04:28:19.662Z,3.80
2023-05-18T04:33:25.249Z,3.70
2023-05-18T04:38:35.197Z,3.60
2023-05-18T04:43:43.207Z,5.00
2023-05-18T04:48:53.275Z,2.80
2023-05-18T04:53:57.160Z,3.40
2023-05-18T04:59:02.804Z,4.00
2023-05-18T05:04:07.365Z,3.50
2023-05-18T05:09:14.324Z,3.00
2023-05-18T05:14:20.380Z,3.50
2023-05-18T05:19:24.315Z,3.20
2023-05-18T05:24:28.002Z,4.10
2023-05-18T05:29:31.796Z,4.00
2023-05-18T05:34:37.994Z,2.90
2023-05-18T05:39:42.515Z,3.50
2023-05-18T05:44:47.271Z,2.60
2023-05-18T05:49:51.368Z,3.30
2023-05-18T05:54:56.440Z,2.70
2023-05-18T06:00:00.741Z,2.80
2023-05-18T06:05:06.358Z,2.90
2023-05-18T06:10:10.297Z,2.30
2023-05-18T06:15:15.158Z,3.80
2023-05-18T06:20:18.861Z,3.30
2023-05-18T06:25:25.774Z,2.00
2023-05-18T06:30:44.635Z,2.00
2023-05-18T06:36:13.096Z,2.30
2023-05-18T06:41:17.276Z,2.30
2023-05-18T06:46:24.706Z,2.70
2023-05-18T06:51:32.701Z,1.80
2023-05-18T06:56:39.277Z,1.90
2023-05-18T07:01:43.079Z,1.80
2023-05-18T07:06:50.189Z,2.40
2023-05-18T07:11:53.938Z,2.30
2023-05-18T07:16:57.666Z,1.70
2023-05-18T07:22:01.525Z,1.40
2023-05-18T07:27:06.261Z,2.10
2023-05-18T07:32:09.985Z,1.60
2023-05-18T07:37:14.255Z,1.90
2023-05-18T07:42:18.094Z,2.20
2023-05-18T07:47:21.945Z,2.20
2023-05-18T07:52:26.145Z,1.90
2023-05-18T07:57:31.446Z,1.70
2023-05-18T08:02:35.149Z,1.70
2023-05-18T08:07:38.888Z,1.90
2023-05-18T08:12:43.415Z,1.40
2023-05-18T08:17:47.761Z,2.20
2023-05-18T08:22:51.691Z,1.30
2023-05-18T08:27:55.302Z,1.50
2023-05-18T08:32:59.338Z,2.20
2023-05-18T08:38:05.394Z,2.00
2023-05-18T08:43:19.653Z,1.60
2023-05-18T08:48:27.220Z,3.00
2023-05-18T08:53:34.027Z,1.80
2023-05-18T08:58:45.012Z,2.30
2023-05-18T09:03:51.578Z,1.60
2023-05-18T09:09:04.589Z,1.70
2023-05-18T09:14:08.581Z,1.70
2023-05-18T09:19:12.342Z,1.60
2023-05-18T09:24:16.632Z,1.50
2023-05-18T09:29:22.113Z,1.60
2023-05-18T09:34:25.828Z,1.90
2023-05-18T09:39:29.534Z,1.50
2023-05-18T09:44:36.406Z,1.40
2023-05-18T09:49:41.144Z,1.40
2023-05-18T09:54:44.861Z,1.20
2023-05-18T09:59:59.177Z,1.30
2023-05-18T10:05:03.126Z,1.10
2023-05-18T10:10:09.098Z,1.40
2023-05-18T10:15:18.057Z,1.80
2023-05-18T10:20:24.872Z,0.90
2023-05-18T10:25:29.818Z,2.00
2023-05-18T10:30:34.764Z,1.10
2023-05-18T10:35:39.569Z,0.90
2023-05-18T10:40:44.454Z,1.40
2023-05-18T10:45:53.052Z,1.10
2023-05-18T10:50:58.350Z,1.00
2023-05-18T10:56:03.808Z,1.00
2023-05-18T11:01:10.180Z,0.90
2023-05-18T11:06:15.367Z,1.10
2023-05-18T11:11:24.761Z,0.90
2023-05-18T11:16:36.204Z,1.10
2023-05-18T11:21:42.081Z,1.80
2023-05-18T11:26:50.183Z,1.00
2023-05-18T11:31:56.129Z,1.10
2023-05-18T11:37:01.765Z,1.30
2023-05-18T11:42:14.871Z,1.10
2023-05-18T11:47:19.175Z,1.10
2023-05-18T11:52:24.441Z,1.40
2023-05-18T11:57:34.428Z,1.30
2023-05-18T12:02:46.627Z,1.10
2023-05-18T12:07:56.840Z,0.90
2023-05-18T12:13:01.528Z,0.90
2023-05-18T12:18:11.469Z,1.20
2023-05-18T12:23:15.742Z,1.50
2023-05-18T12:28:19.473Z,1.00
2023-05-18T12:33:23.237Z,0.90
2023-05-18T12:38:29.695Z,1.30
2023-05-18T12:43:39.494Z,1.10
2023-05-18T12:48:49.503Z,1.20
2023-05-18T12:53:53.174Z,1.10
2023-05-18T12:59:03.362Z,1.10
2023-05-18T13:04:12.130Z,0.90
2023-05-18T13:09:17.236Z,1.00
2023-05-18T13:14:31.207Z,0.90
2023-05-18T13:19:37.861Z,1.10
2023-05-18T13:24:43.204Z,1.10
2023-05-18T13:29:47.169Z,1.00
2023-05-18T13:34:52.786Z,1.50
2023-05-18T13:40:03.166Z,1.90
2023-05-18T13:45:08.388Z,1.20
2023-05-18T13:50:12.889Z,1.30
2023-05-18T13:55:16.766Z,1.40
2023-05-18T14:00:21.123Z,1.10
2023-05-18T14:05:25.508Z,1.40
2023-05-18T14:10:29.792Z,1.30
2023-05-18T14:15:33.623Z,1.30
2023-05-18T14:20:38.290Z,1.50
2023-05-18T14:25:43.980Z,1.30
2023-05-18T14:30:47.720Z,1.20
2023-05-18T14:35:51.615Z,1.40
2023-05-18T14:40:55.359Z,1.50
2023-05-18T14:46:08.100Z,1.30
2023-05-18T14:51:13.819Z,1.30
2023-05-18T14:56:17.624Z,1.40
2023-05-18T15:01:21.638Z,1.50
2023-05-18T15:06:26.625Z,1.20
2023-05-18T15:11:30.322Z,1.30
2023-05-18T15:16:34.328Z,1.30
2023-05-18T15:21:40.493Z,1.10
2023-05-18T15:26:45.003Z,1.20
2023-05-18T15:31:53.074Z,1.10
2023-05-18T15:36:57.121Z,1.00
2023-05-18T15:42:05.290Z,1.20
2023-05-18T15:47:09.093Z,2.10
2023-05-18T15:52:12.880Z,1.60
2023-05-18T15:57:16.622Z,1.90
2023-05-18T16:02:20.367Z,1.30
2023-05-18T16:07:24.799Z,1.50
2023-05-18T16:12:28.393Z,1.30
2023-05-18T16:17:32.611Z,1.50
2023-05-18T16:22:36.244Z,1.30
2023-05-18T16:27:39.874Z,1.20
2023-05-18T16:32:44.770Z,1.20
2023-05-18T16:37:48.407Z,1.30
2023-05-18T16:42:52.167Z,1.60
2023-05-18T16:47:56.046Z,1.40
2023-05-18T16:52:59.765Z,1.40
2023-05-18T16:58:04.396Z,1.50
2023-05-18T17:03:11.341Z,2.70
2023-05-18T17:08:15.414Z,1.40
2023-05-18T17:13:19.140Z,1.30
2023-05-18T17:18:22.818Z,1.70
2023-05-18T17:23:26.499Z,1.90
2023-05-18T17:28:30.340Z,1.90
2023-05-18T17:33:34.245Z,1.40
2023-05-18T17:38:38.484Z,1.60
2023-05-18T17:43:42.442Z,1.30
2023-05-18T17:48:49.320Z,1.60
2023-05-18T17:53:53.251Z,1.20
2023-05-18T17:58:59.022Z,1.30
2023-05-18T18:04:03.037Z,1.50
2023-05-18T18:09:07.241Z,1.20
2023-05-18T18:14:15.798Z,1.30
2023-05-18T18:19:20.495Z,1.20
2023-05-18T18:24:24.805Z,1.40
2023-05-18T18:29:30.949Z,1.40
2023-05-18T18:34:41.335Z,1.50
2023-05-18T18:39:45.147Z,1.30
2023-05-18T18:44:49.777Z,1.70
2023-05-18T18:49:53.729Z,1.80
2023-05-18T18:54:58.782Z,2.10
2023-05-18T19:00:02.676Z,1.50
2023-05-18T19:05:11.413Z,1.80
2023-05-18T19:10:15.917Z,1.60
2023-05-18T19:15:22.707Z,1.90
2023-05-18T19:20:27.105Z,1.70
2023-05-18T19:25:32.303Z,1.70
2023-05-18T19:30:36.946Z,1.90
2023-05-18T19:35:40.958Z,2.60
2023-05-18T19:40:44.771Z,2.70
2023-05-18T19:45:50.473Z,2.40
2023-05-18T19:50:54.803Z,1.90
2023-05-18T19:56:00.068Z,1.90
2023-05-18T20:01:04.753Z,2.00
2023-05-18T20:06:08.592Z,2.10
2023-05-18T20:11:12.621Z,2.10
2023-05-18T20:16:20.688Z,2.40
2023-05-18T20:21:25.769Z,2.40
2023-05-18T20:26:31.946Z,2.80
2023-05-18T20:31:37.613Z,2.60
2023-05-18T20:36:41.580Z,2.70
2023-05-18T20:41:45.222Z,2.30
2023-05-18T20:46:53.365Z,1.80
2023-05-18T20:51:57.218Z,2.30
2023-05-18T20:57:01.184Z,2.90
2023-05-18T21:02:05.262Z,2.90
2023-05-18T21:07:10.285Z,2.90
2023-05-18T21:12:14.154Z,2.80
2023-05-18T21:17:18.550Z,4.40
2023-05-18T21:22:22.537Z,3.80
2023-05-18T21:27:27.265Z,5.50
2023-05-18T21:32:31.572Z,5.70
2023-05-18T21:37:35.487Z,5.20
2023-05-18T21:42:45.375Z,5.30
2023-05-18T21:47:51.073Z,4.50
2023-05-18T21:52:55.535Z,4.60
2023-05-18T21:57:59.904Z,4.50
2023-05-18T22:03:05.557Z,4.30
2023-05-18T22:08:09.879Z,4.60
2023-05-18T22:13:13.559Z,5.10
2023-05-18T22:18:19.606Z,4.90
2023-05-18T22:23:23.779Z,4.80
2023-05-18T22:28:28.585Z,5.10
2023-05-18T22:33:32.315Z,5.20
2023-05-18T22:38:36.198Z,5.00
2023-05-18T22:43:40.754Z,5.10
2023-05-18T22:48:45.965Z,5.40
2023-05-18T22:53:49.687Z,5.20
2023-05-18T22:58:53.845Z,5.50
2023-05-18T23:03:59.540Z,6.10
2023-05-18T23:09:04.319Z,5.30
2023-05-18T23:14:08.878Z,5.70
2023-05-18T23:19:15.226Z,5.80
2023-05-18T23:24:19.326Z,5.90
2023-05-18T23:29:22.956Z,5.60
2023-05-18T23:34:27.830Z,5.70
2023-05-18T23:39:33.046Z,4.80
2023-05-18T23:44:37.547Z,4.70
2023-05-18T23:49:41.489Z,4.60
2023-05-18T23:54:50.701Z,4.10
2023-05-18T23:59:55.803Z,3.90
